Time;durP1;ratioP1;P1;durP2;ratioP2;P2;SDS_P1;SDS_P2;PMS_P1;PMS_P2;Temp;Humidity;BMP_temperature;BMP_pressure;BME280_temperature;BME280_humidity;BME280_pressure;Samples;Min_cycle;Max_cycle;Signal;HPM_P1;HPM_P2
2022/09/25 00:00:33;;;;;;;5.80;1.40;;;;;;;;;;5079091;28;20049;-75
2022/09/25 00:03:00;;;;;;;3.72;1.48;;;;;;;;;;5070656;28;20049;-75
2022/09/25 00:05:28;;;;;;;3.15;1.50;;;;;;;;;;5077492;28;20136;-74
2022/09/25 00:07:55;;;;;;;4.65;1.30;;;;;;;;;;5072037;28;20049;-74
2022/09/25 00:10:28;;;;;;;4.03;1.10;;;;;;;;;;5077310;28;20103;-74
2022/09/25 00:12:55;;;;;;;2.15;0.93;;;;;;;;;;5076966;28;20152;-75
2022/09/25 00:15:22;;;;;;;3.42;1.30;;;;;;;;;;5074039;28;20076;-75
2022/09/25 00:17:49;;;;;;;3.75;1.25;;;;;;;;;;5067092;28;20053;-75
2022/09/25 00:20:19;;;;;;;1.77;1.30;;;;;;;;;;5069772;28;20056;-74
2022/09/25 00:22:47;;;;;;;2.42;1.50;;;;;;;;;;5072240;28;20053;-74
2022/09/25 00:25:15;;;;;;;7.70;1.25;;;;;;;;;;5071756;28;20076;-75
2022/09/25 00:27:43;;;;;;;8.25;1.70;;;;;;;;;;5071138;28;20049;-75
2022/09/25 00:30:11;;;;;;;4.05;1.50;;;;;;;;;;5073987;28;20132;-75
2022/09/25 00:32:38;;;;;;;9.20;1.33;;;;;;;;;;5073223;28;20056;-75
2022/09/25 00:35:06;;;;;;;1.52;1.15;;;;;;;;;;5073171;28;20132;-75
2022/09/25 00:37:34;;;;;;;9.23;1.40;;;;;;;;;;5072990;28;20056;-75
2022/09/25 00:40:01;;;;;;;2.05;1.10;;;;;;;;;;5067653;28;20049;-76
2022/09/25 00:42:29;;;;;;;9.30;1.50;;;;;;;;;;5069530;28;20056;-75
2022/09/25 00:45:20;;;;;;;2.25;1.27;;;;;;;;;;5071429;28;20099;-75
2022/09/25 00:48:13;;;;;;;4.18;1.02;;;;;;;;;;5056736;28;20932;-75
2022/09/25 00:50:48;;;;;;;1.15;0.85;;;;;;;;;;5068806;28;20049;-75
2022/09/25 00:53:15;;;;;;;;;;;;;;;;;;5066664;28;20118;-75
2022/09/25 00:55:43;;;;;;;3.55;0.98;;;;;;;;;;5069634;28;43918;-75
2022/09/25 00:58:13;;;;;;;3.38;0.95;;;;;;;;;;5066865;28;20049;-74
2022/09/25 01:00:41;;;;;;;2.85;0.95;;;;;;;;;;5063445;28;20201;-75
2022/09/25 01:03:08;;;;;;;2.40;1.00;;;;;;;;;;5076604;28;20114;-75
2022/09/25 01:05:38;;;;;;;0.85;0.68;;;;;;;;;;5076701;28;20825;-75
2022/09/25 01:08:06;;;;;;;0.77;0.77;;;;;;;;;;5067630;28;20061;-75
2022/09/25 01:10:33;;;;;;;1.13;0.75;;;;;;;;;;5069473;28;20147;-76
2022/09/25 01:13:01;;;;;;;4.50;0.98;;;;;;;;;;5069985;28;20047;-75
2022/09/25 01:15:42;;;;;;;2.10;1.20;;;;;;;;;;5075576;28;20053;-75
2022/09/25 01:18:26;;;;;;;5.25;1.00;;;;;;;;;;5075712;28;20057;-75
2022/09/25 01:21:26;;;;;;;3.40;0.80;;;;;;;;;;5068924;28;20057;-74
2022/09/25 01:24:15;;;;;;;11.77;1.15;;;;;;;;;;5034424;28;21270;-75
2022/09/25 01:27:09;;;;;;;1.15;0.70;;;;;;;;;;5066096;28;20053;-75
2022/09/25 01:29:39;;;;;;;6.78;0.63;;;;;;;;;;5073774;28;20086;-75
2022/09/25 01:32:20;;;;;;;1.10;0.80;;;;;;;;;;5069553;28;20103;-75
2022/09/25 01:34:53;;;;;;;3.70;0.90;;;;;;;;;;5071265;28;20118;-75
2022/09/25 01:37:21;;;;;;;9.90;1.15;;;;;;;;;;5071283;28;20049;-74
2022/09/25 01:39:59;;;;;;;0.80;0.80;;;;;;;;;;5069400;28;20045;-75
2022/09/25 01:42:29;;;;;;;6.43;1.00;;;;;;;;;;5074837;28;20057;-75
2022/09/25 01:45:07;;;;;;;2.38;0.60;;;;;;;;;;5061293;28;20526;-75
2022/09/25 01:47:39;;;;;;;1.52;0.55;;;;;;;;;;5075667;28;20848;-75
2022/09/25 01:50:13;;;;;;;0.50;0.50;;;;;;;;;;5067282;28;20091;-74
2022/09/25 01:52:44;;;;;;;2.35;0.80;;;;;;;;;;5065106;28;20062;-75
2022/09/25 01:55:34;;;;;;;1.10;0.73;;;;;;;;;;5081543;28;20079;-75
2022/09/25 01:58:07;;;;;;;1.08;0.80;;;;;;;;;;5070773;28;20053;-75
2022/09/25 02:00:36;;;;;;;1.48;0.90;;;;;;;;;;5067488;28;20045;-76
2022/09/25 02:03:10;;;;;;;0.50;0.50;;;;;;;;;;5078943;28;20060;-76
2022/09/25 02:05:46;;;;;;;0.85;0.80;;;;;;;;;;5068448;28;20841;-76
2022/09/25 02:08:33;;;;;;;0.70;0.70;;;;;;;;;;5066850;28;20106;-76
2022/09/25 02:11:02;;;;;;;5.20;1.00;;;;;;;;;;5071985;28;20057;-75
2022/09/25 02:13:37;;;;;;;8.68;0.90;;;;;;;;;;5068090;28;20053;-76
2022/09/25 02:16:08;;;;;;;2.10;1.15;;;;;;;;;;5070287;28;20055;-76
2022/09/25 02:21:39;;;;;;;1.70;0.90;;;;;;;;;;5076061;28;20050;-75
2022/09/25 02:24:21;;;;;;;0.70;0.70;;;;;;;;;;5070489;28;20060;-76
2022/09/25 02:26:49;;;;;;;1.23;0.82;;;;;;;;;;5070274;28;20864;-76
2022/09/25 02:29:17;;;;;;;3.42;1.08;;;;;;;;;;5074425;28;20045;-75
2022/09/25 02:31:47;;;;;;;1.02;0.75;;;;;;;;;;5061461;28;20102;-76
2022/09/25 02:34:14;;;;;;;0.82;0.60;;;;;;;;;;5075697;28;20048;-76
2022/09/25 02:36:43;;;;;;;0.93;0.77;;;;;;;;;;5069241;28;20041;-76
2022/09/25 02:39:12;;;;;;;0.80;0.80;;;;;;;;;;5075523;28;20049;-76
2022/09/25 02:42:06;;;;;;;0.73;0.73;;;;;;;;;;5070636;28;20052;-76
2022/09/25 02:44:49;;;;;;;0.60;0.60;;;;;;;;;;5065593;28;20049;-76
2022/09/25 02:47:19;;;;;;;2.80;0.90;;;;;;;;;;5067361;28;20045;-76
2022/09/25 02:49:59;;;;;;;3.63;0.90;;;;;;;;;;5073397;28;20081;-76
2022/09/25 02:52:45;;;;;;;2.30;0.90;;;;;;;;;;5076585;28;20892;-76
2022/09/25 02:55:33;;;;;;;2.88;0.77;;;;;;;;;;5064006;28;20075;-77
2022/09/25 02:58:06;;;;;;;1.92;1.00;;;;;;;;;;5073421;28;20048;-76
2022/09/25 03:00:33;;;;;;;;;;;;;;;;;;5069566;28;20057;-76
2022/09/25 03:03:02;;;;;;;0.70;0.65;;;;;;;;;;5067816;28;43701;-76
2022/09/25 03:05:30;;;;;;;11.25;1.10;;;;;;;;;;5067722;28;20120;-76
2022/09/25 03:10:45;;;;;;;0.88;0.75;;;;;;;;;;5062280;28;20856;-76
2022/09/25 03:13:20;;;;;;;5.20;1.00;;;;;;;;;;5069079;28;20080;-76
2022/09/25 03:15:50;;;;;;;1.58;1.00;;;;;;;;;;5070539;28;20049;-76
2022/09/25 03:18:18;;;;;;;1.73;0.73;;;;;;;;;;5070529;28;20045;-76
2022/09/25 03:20:45;;;;;;;1.15;0.95;;;;;;;;;;5075405;28;20399;-76
2022/09/25 03:23:12;;;;;;;1.25;0.70;;;;;;;;;;5071561;28;20057;-76
2022/09/25 03:25:40;;;;;;;0.60;0.60;;;;;;;;;;5068126;28;20412;-76
2022/09/25 03:28:15;;;;;;;0.90;0.47;;;;;;;;;;5070549;28;20144;-76
2022/09/25 03:30:42;;;;;;;0.63;0.63;;;;;;;;;;5071261;28;20107;-76
2022/09/25 03:33:11;;;;;;;1.02;0.80;;;;;;;;;;5068525;28;20896;-77
2022/09/25 03:35:38;;;;;;;0.90;0.90;;;;;;;;;;5067879;28;20534;-76
2022/09/25 03:38:09;;;;;;;14.88;0.85;;;;;;;;;;5072264;28;20079;-76
2022/09/25 03:40:36;;;;;;;0.65;0.65;;;;;;;;;;5067209;28;20087;-76
2022/09/25 03:43:04;;;;;;;0.80;0.50;;;;;;;;;;5071531;28;20045;-77
2022/09/25 03:45:30;;;;;;;0.73;0.52;;;;;;;;;;5083446;28;20102;-76
2022/09/25 03:47:57;;;;;;;1.05;1.02;;;;;;;;;;5068980;28;20053;-76
2022/09/25 03:50:24;;;;;;;0.60;0.60;;;;;;;;;;5064968;28;20056;-77
2022/09/25 03:52:51;;;;;;;7.53;0.80;;;;;;;;;;5075784;28;20037;-76
2022/09/25 03:55:18;;;;;;;1.35;0.57;;;;;;;;;;5065515;28;20044;-77
2022/09/25 03:57:46;;;;;;;6.18;0.75;;;;;;;;;;5074783;28;20123;-76
2022/09/25 04:00:13;;;;;;;0.50;0.50;;;;;;;;;;5067332;28;20068;-76
2022/09/25 04:02:40;;;;;;;1.08;0.80;;;;;;;;;;5069746;28;20051;-77
2022/09/25 04:05:08;;;;;;;0.55;0.50;;;;;;;;;;5070015;28;20146;-76
2022/09/25 04:07:35;;;;;;;0.38;0.38;;;;;;;;;;5065142;28;20053;-77
2022/09/25 04:10:03;;;;;;;0.50;0.50;;;;;;;;;;5064572;28;20052;-76
2022/09/25 04:12:30;;;;;;;0.50;0.50;;;;;;;;;;5066052;28;20068;-76
2022/09/25 04:14:57;;;;;;;7.65;0.80;;;;;;;;;;5069244;28;20049;-76
2022/09/25 04:17:24;;;;;;;0.45;0.45;;;;;;;;;;5068966;28;20103;-77
2022/09/25 04:19:52;;;;;;;0.47;0.47;;;;;;;;;;5075297;28;20056;-77
2022/09/25 04:22:19;;;;;;;3.80;0.50;;;;;;;;;;5068022;28;20041;-76
2022/09/25 04:24:49;;;;;;;7.72;1.02;;;;;;;;;;5069695;28;20052;-78
2022/09/25 04:27:18;;;;;;;7.30;0.60;;;;;;;;;;5074682;28;20056;-77
2022/09/25 04:29:45;;;;;;;2.00;0.80;;;;;;;;;;5067166;28;20063;-77
2022/09/25 04:34:58;;;;;;;0.68;0.43;;;;;;;;;;5065148;28;20079;-77
2022/09/25 04:37:26;;;;;;;10.60;1.00;;;;;;;;;;5077847;28;20103;-77
2022/09/25 04:39:54;;;;;;;1.40;0.77;;;;;;;;;;5068086;28;20045;-77
2022/09/25 04:42:23;;;;;;;3.72;0.70;;;;;;;;;;5058189;28;20048;-77
2022/09/25 04:44:51;;;;;;;2.75;0.85;;;;;;;;;;5067364;28;20049;-77
2022/09/25 04:47:19;;;;;;;3.45;0.95;;;;;;;;;;5064425;28;20106;-77
2022/09/25 04:49:47;;;;;;;3.22;0.90;;;;;;;;;;5060132;28;20061;-77
2022/09/25 04:52:14;;;;;;;1.83;0.85;;;;;;;;;;5068012;28;20127;-76
2022/09/25 04:54:42;;;;;;;0.82;0.65;;;;;;;;;;5068282;28;20882;-76
2022/09/25 04:57:10;;;;;;;0.85;0.68;;;;;;;;;;5067085;28;20041;-76
2022/09/25 04:59:38;;;;;;;0.88;0.60;;;;;;;;;;5067403;28;20073;-77
2022/09/25 05:02:05;;;;;;;1.70;1.10;;;;;;;;;;5078478;28;20057;-77
2022/09/25 05:04:33;;;;;;;3.78;0.88;;;;;;;;;;5069829;28;20127;-76
2022/09/25 05:07:00;;;;;;;1.77;1.00;;;;;;;;;;5072429;28;20134;-76
2022/09/25 05:09:27;;;;;;;3.42;1.10;;;;;;;;;;5069417;28;20862;-77
2022/09/25 05:11:55;;;;;;;3.97;0.98;;;;;;;;;;5074844;28;20049;-77
2022/09/25 05:14:22;;;;;;;3.60;1.30;;;;;;;;;;5070899;28;20856;-76
2022/09/25 05:16:50;;;;;;;2.28;1.08;;;;;;;;;;5079588;28;20126;-77
2022/09/25 05:19:17;;;;;;;0.90;0.77;;;;;;;;;;5073070;28;20045;-76
2022/09/25 05:21:44;;;;;;;1.50;1.00;;;;;;;;;;5082614;28;20056;-76
2022/09/25 05:24:12;;;;;;;2.10;0.93;;;;;;;;;;5075926;28;20045;-76
2022/09/25 05:26:40;;;;;;;4.93;1.33;;;;;;;;;;5071388;28;20045;-76
2022/09/25 05:29:08;;;;;;;3.70;0.80;;;;;;;;;;5069035;28;20471;-77
2022/09/25 05:31:37;;;;;;;3.70;1.23;;;;;;;;;;5072606;28;20049;-76
2022/09/25 05:34:04;;;;;;;6.47;1.77;;;;;;;;;;5075737;28;20049;-75
2022/09/25 05:36:32;;;;;;;2.42;1.05;;;;;;;;;;5073649;28;20045;-76
2022/09/25 05:39:00;;;;;;;2.55;1.42;;;;;;;;;;5071414;28;20053;-75
2022/09/25 05:41:27;;;;;;;1.10;1.00;;;;;;;;;;5074310;28;20049;-77
2022/09/25 05:43:55;;;;;;;1.23;0.73;;;;;;;;;;5079263;28;20053;-76
2022/09/25 05:46:22;;;;;;;1.05;0.90;;;;;;;;;;5074832;28;20144;-77
2022/09/25 05:48:50;;;;;;;1.65;1.00;;;;;;;;;;5068904;28;20053;-76
2022/09/25 05:51:17;;;;;;;1.00;0.90;;;;;;;;;;5072418;28;20094;-77
2022/09/25 05:53:44;;;;;;;1.88;1.00;;;;;;;;;;5082379;28;20049;-76
2022/09/25 05:56:12;;;;;;;3.70;1.10;;;;;;;;;;5073310;28;20049;-77
2022/09/25 05:58:39;;;;;;;4.90;0.80;;;;;;;;;;5071783;28;20045;-77
2022/09/25 06:01:07;;;;;;;1.27;0.80;;;;;;;;;;5078091;28;20122;-77
2022/09/25 06:03:34;;;;;;;1.00;0.90;;;;;;;;;;5069576;28;20060;-76
2022/09/25 06:06:02;;;;;;;1.75;0.85;;;;;;;;;;5069228;28;20053;-77
2022/09/25 06:08:29;;;;;;;0.70;0.70;;;;;;;;;;5075716;28;20049;-77
2022/09/25 06:10:57;;;;;;;1.50;0.90;;;;;;;;;;5074970;28;20053;-76
2022/09/25 06:13:24;;;;;;;0.75;0.75;;;;;;;;;;5073340;28;20053;-77
2022/09/25 06:15:52;;;;;;;1.25;0.73;;;;;;;;;;5073865;28;20098;-77
2022/09/25 06:18:20;;;;;;;0.82;0.80;;;;;;;;;;5074871;28;20041;-77
2022/09/25 06:20:48;;;;;;;2.50;0.68;;;;;;;;;;5074698;28;20076;-77
2022/09/25 06:23:16;;;;;;;1.38;1.00;;;;;;;;;;5073758;28;20057;-77
2022/09/25 06:25:43;;;;;;;1.00;0.75;;;;;;;;;;5073541;28;20056;-76
2022/09/25 06:28:11;;;;;;;2.05;1.00;;;;;;;;;;5079784;28;20048;-76
2022/09/25 06:30:39;;;;;;;1.50;1.00;;;;;;;;;;5080936;28;20131;-77
2022/09/25 06:33:08;;;;;;;1.38;1.20;;;;;;;;;;5069764;28;20110;-77
2022/09/25 06:35:43;;;;;;;6.78;1.63;;;;;;;;;;5090485;28;20057;-77
2022/09/25 06:38:10;;;;;;;3.80;0.82;;;;;;;;;;5064912;28;20056;-76
2022/09/25 06:40:39;;;;;;;1.45;1.05;;;;;;;;;;5080145;28;20826;-77
2022/09/25 06:43:11;;;;;;;7.55;1.10;;;;;;;;;;5075890;28;20136;-77
2022/09/25 06:45:39;;;;;;;1.65;1.30;;;;;;;;;;5070539;28;20049;-76
2022/09/25 06:48:11;;;;;;;2.10;0.80;;;;;;;;;;5066293;28;20055;-76
2022/09/25 06:50:55;;;;;;;1.40;1.00;;;;;;;;;;5067730;28;20397;-77
2022/09/25 06:53:23;;;;;;;3.00;1.00;;;;;;;;;;5069262;28;20057;-77
2022/09/25 06:55:50;;;;;;;2.92;1.17;;;;;;;;;;5068521;28;20049;-77
2022/09/25 06:58:19;;;;;;;1.80;1.05;;;;;;;;;;5071441;28;20052;-77
2022/09/25 07:00:47;;;;;;;9.38;1.40;;;;;;;;;;5072108;28;20106;-76
2022/09/25 07:06:01;;;;;;;2.05;1.33;;;;;;;;;;5069340;28;20059;-77
2022/09/25 07:08:28;;;;;;;3.33;1.30;;;;;;;;;;5076024;28;20053;-77
2022/09/25 07:10:56;;;;;;;1.73;1.20;;;;;;;;;;5074410;28;20059;-77
2022/09/25 07:13:25;;;;;;;1.02;0.93;;;;;;;;;;5060602;28;20099;-78
2022/09/25 07:15:59;;;;;;;5.80;1.77;;;;;;;;;;5071276;28;20049;-77
2022/09/25 07:18:27;;;;;;;3.40;1.52;;;;;;;;;;5069947;28;20071;-77
2022/09/25 07:21:05;;;;;;;8.75;1.75;;;;;;;;;;5074930;28;20111;-78
2022/09/25 07:23:32;;;;;;;4.78;1.83;;;;;;;;;;5066965;28;20743;-78
2022/09/25 07:26:04;;;;;;;2.50;1.70;;;;;;;;;;5067230;28;20052;-76
2022/09/25 07:28:31;;;;;;;10.15;1.88;;;;;;;;;;5071110;28;20503;-76
2022/09/25 07:30:58;;;;;;;6.95;2.13;;;;;;;;;;5072712;28;20049;-76
2022/09/25 07:33:26;;;;;;;5.68;1.80;;;;;;;;;;5071417;28;20053;-76
2022/09/25 07:35:53;;;;;;;4.45;1.38;;;;;;;;;;5074007;28;20896;-76
2022/09/25 07:38:21;;;;;;;8.13;1.67;;;;;;;;;;5075854;28;20049;-76
2022/09/25 07:40:48;;;;;;;4.45;1.90;;;;;;;;;;5070882;28;20049;-76
2022/09/25 07:43:16;;;;;;;9.75;2.00;;;;;;;;;;5071410;28;20059;-76
2022/09/25 07:45:51;;;;;;;1.60;1.02;;;;;;;;;;5067982;28;20053;-76
2022/09/25 07:48:20;;;;;;;3.58;1.50;;;;;;;;;;5075786;28;20111;-76
2022/09/25 07:50:50;;;;;;;2.72;1.15;;;;;;;;;;5072288;28;20135;-76
2022/09/25 07:53:18;;;;;;;8.60;1.33;;;;;;;;;;5064218;28;20057;-76
2022/09/25 07:55:46;;;;;;;8.45;1.20;;;;;;;;;;5069695;28;20103;-77
2022/09/25 07:58:14;;;;;;;5.32;1.15;;;;;;;;;;5072167;28;20891;-76
2022/09/25 08:00:41;;;;;;;4.47;1.08;;;;;;;;;;5070840;28;20041;-76
2022/09/25 08:03:14;;;;;;;1.08;0.88;;;;;;;;;;5071701;28;20052;-76
2022/09/25 08:05:42;;;;;;;4.30;1.25;;;;;;;;;;5066377;28;20495;-75
2022/09/25 08:08:09;;;;;;;2.47;1.02;;;;;;;;;;5073447;28;20056;-76
2022/09/25 08:10:36;;;;;;;3.28;1.10;;;;;;;;;;5068678;28;20049;-76
2022/09/25 08:13:03;;;;;;;3.38;1.30;;;;;;;;;;5063699;28;20057;-76
2022/09/25 08:15:30;;;;;;;3.25;1.33;;;;;;;;;;5067827;28;20049;-75
2022/09/25 08:17:58;;;;;;;6.15;1.08;;;;;;;;;;5074291;28;20045;-76
2022/09/25 08:20:25;;;;;;;7.70;1.20;;;;;;;;;;5071005;28;20095;-75
2022/09/25 08:22:56;;;;;;;2.83;0.80;;;;;;;;;;5067887;28;20089;-75
2022/09/25 08:25:23;;;;;;;4.10;0.90;;;;;;;;;;5076618;28;20107;-75
2022/09/25 08:27:50;;;;;;;6.50;1.10;;;;;;;;;;5080950;28;20107;-75
2022/09/25 08:30:17;;;;;;;1.63;0.88;;;;;;;;;;5068537;28;20110;-75
2022/09/25 08:32:44;;;;;;;1.80;0.77;;;;;;;;;;5067716;28;20053;-76
2022/09/25 08:35:12;;;;;;;5.05;0.68;;;;;;;;;;5076507;28;20049;-75
2022/09/25 08:37:40;;;;;;;2.30;0.88;;;;;;;;;;5065376;28;20056;-74
2022/09/25 08:40:27;;;;;;;4.32;1.05;;;;;;;;;;5069490;28;20053;-76
2022/09/25 08:42:54;;;;;;;4.90;1.00;;;;;;;;;;5075996;28;20063;-75
2022/09/25 08:51:06;;;;;;;3.95;0.80;;;;;;;;;;5064844;28;20060;-75
2022/09/25 08:53:34;;;;;;;6.80;1.05;;;;;;;;;;5073848;28;20060;-76
2022/09/25 08:56:18;;;;;;;7.68;1.08;;;;;;;;;;5084083;28;20071;-75
2022/09/25 08:58:45;;;;;;;5.45;1.05;;;;;;;;;;5069345;28;20885;-75
2022/09/25 09:01:35;;;;;;;5.68;0.93;;;;;;;;;;5069927;28;20857;-75
2022/09/25 09:04:17;;;;;;;2.50;0.80;;;;;;;;;;5066265;28;20173;-75
2022/09/25 09:06:47;;;;;;;2.95;0.95;;;;;;;;;;5073488;28;20794;-75
2022/09/25 09:09:28;;;;;;;;;;;;;;;;;;5080586;28;20419;-76
2022/09/25 09:12:00;;;;;;;2.10;0.80;;;;;;;;;;5076581;28;44691;-75
2022/09/25 09:14:29;;;;;;;2.03;0.80;;;;;;;;;;5076700;28;20074;-74
2022/09/25 09:17:02;;;;;;;4.20;0.80;;;;;;;;;;5070054;28;20056;-75
2022/09/25 09:19:30;;;;;;;;;;;;;;;;;;5065355;28;20053;-74
2022/09/25 09:22:09;;;;;;;4.63;0.88;;;;;;;;;;5077870;28;43458;-74
2022/09/25 09:24:36;;;;;;;4.82;0.90;;;;;;;;;;5077344;28;20053;-74
2022/09/25 09:27:12;;;;;;;4.63;0.80;;;;;;;;;;5081767;28;20103;-74
2022/09/25 09:29:39;;;;;;;7.82;0.77;;;;;;;;;;5065568;28;20089;-75
2022/09/25 09:32:19;;;;;;;2.08;0.80;;;;;;;;;;5074544;28;20045;-75
2022/09/25 09:34:50;;;;;;;7.85;1.38;;;;;;;;;;5075434;28;20111;-75
2022/09/25 09:37:48;;;;;;;4.30;1.00;;;;;;;;;;5087272;28;20056;-75
2022/09/25 09:40:20;;;;;;;6.35;1.25;;;;;;;;;;5075150;28;20044;-74
2022/09/25 09:43:04;;;;;;;5.63;0.93;;;;;;;;;;5075798;28;20049;-74
2022/09/25 09:45:53;;;;;;;4.45;1.05;;;;;;;;;;5076102;28;20059;-74
2022/09/25 09:48:38;;;;;;;4.43;0.85;;;;;;;;;;5063617;28;20064;-74
2022/09/25 09:51:25;;;;;;;6.93;1.20;;;;;;;;;;5075997;28;20057;-75
2022/09/25 09:53:52;;;;;;;4.25;0.90;;;;;;;;;;5073781;28;20056;-74
2022/09/25 09:56:22;;;;;;;3.65;0.75;;;;;;;;;;5070678;28;20056;-75
2022/09/25 09:58:49;;;;;;;3.40;1.00;;;;;;;;;;5072463;28;20052;-75
2022/09/25 10:01:18;;;;;;;3.85;1.05;;;;;;;;;;5070497;28;20206;-74
2022/09/25 10:04:07;;;;;;;8.80;1.20;;;;;;;;;;5060478;28;20140;-74
2022/09/25 10:06:37;;;;;;;9.43;2.25;;;;;;;;;;5084711;28;20052;-74
2022/09/25 10:09:07;;;;;;;2.47;0.90;;;;;;;;;;5075167;28;20045;-75
2022/09/25 10:11:36;;;;;;;4.32;1.10;;;;;;;;;;5071852;28;20063;-74
2022/09/25 10:14:03;;;;;;;6.15;0.80;;;;;;;;;;5075119;28;20095;-74
2022/09/25 10:16:31;;;;;;;4.90;1.00;;;;;;;;;;5084053;28;20055;-74
2022/09/25 10:19:18;;;;;;;4.25;0.93;;;;;;;;;;5076690;28;20056;-75
2022/09/25 10:21:48;;;;;;;3.70;1.10;;;;;;;;;;5070946;28;20053;-74
2022/09/25 10:24:35;;;;;;;3.47;1.10;;;;;;;;;;5083003;28;20044;-74
2022/09/25 10:27:19;;;;;;;2.70;0.80;;;;;;;;;;5077554;28;20049;-74
2022/09/25 10:29:48;;;;;;;3.60;0.90;;;;;;;;;;5083724;28;20052;-74
2022/09/25 10:32:16;;;;;;;4.82;0.88;;;;;;;;;;5068162;28;20068;-75
2022/09/25 10:34:50;;;;;;;4.07;0.85;;;;;;;;;;5066282;28;20049;-74
2022/09/25 10:37:20;;;;;;;6.35;1.17;;;;;;;;;;5067829;28;20053;-74
2022/09/25 10:40:07;;;;;;;3.72;0.80;;;;;;;;;;5074008;28;20538;-75
2022/09/25 10:42:39;;;;;;;9.85;1.30;;;;;;;;;;5068498;28;20404;-74
2022/09/25 10:45:22;;;;;;;2.47;0.75;;;;;;;;;;5066351;28;20056;-74
2022/09/25 10:50:36;;;;;;;1.05;0.60;;;;;;;;;;5066314;28;20049;-75
2022/09/25 10:53:04;;;;;;;7.18;0.98;;;;;;;;;;5068619;28;20052;-74
2022/09/25 10:55:33;;;;;;;1.73;0.60;;;;;;;;;;5073957;28;20067;-74
2022/09/25 10:58:10;;;;;;;3.80;0.88;;;;;;;;;;5073574;28;20049;-74
2022/09/25 11:00:46;;;;;;;3.60;0.95;;;;;;;;;;5071714;28;20063;-74
2022/09/25 11:03:19;;;;;;;2.67;0.95;;;;;;;;;;5067845;28;20053;-74
2022/09/25 11:05:55;;;;;;;2.88;0.98;;;;;;;;;;5056866;28;20053;-74
2022/09/25 11:08:25;;;;;;;4.90;0.93;;;;;;;;;;5074635;28;20048;-74
2022/09/25 11:10:56;;;;;;;2.10;0.68;;;;;;;;;;5066677;28;20049;-74
2022/09/25 11:13:24;;;;;;;1.65;0.68;;;;;;;;;;5062360;28;20057;-75
2022/09/25 11:15:53;;;;;;;7.32;0.88;;;;;;;;;;5067524;28;20221;-74
2022/09/25 11:18:35;;;;;;;2.67;0.50;;;;;;;;;;5067693;28;20056;-73
2022/09/25 11:21:03;;;;;;;3.75;0.60;;;;;;;;;;5066375;28;20049;-74
2022/09/25 11:23:49;;;;;;;3.78;0.90;;;;;;;;;;5068383;28;20084;-73
2022/09/25 11:26:19;;;;;;;1.25;0.50;;;;;;;;;;5062061;28;20100;-74
2022/09/25 11:29:03;;;;;;;2.42;0.95;;;;;;;;;;5065611;28;20511;-75
2022/09/25 11:31:36;;;;;;;1.10;0.50;;;;;;;;;;5066106;28;20057;-75
2022/09/25 11:34:23;;;;;;;2.10;0.80;;;;;;;;;;5065325;28;20049;-74
2022/09/25 11:37:01;;;;;;;1.63;0.70;;;;;;;;;;5066796;28;20247;-74
2022/09/25 11:42:31;;;;;;;0.85;0.57;;;;;;;;;;5067753;28;20056;-73
2022/09/25 11:45:18;;;;;;;1.10;0.60;;;;;;;;;;5061900;28;20053;-74
2022/09/25 11:47:52;;;;;;;3.97;0.75;;;;;;;;;;5061120;28;20103;-74
2022/09/25 11:50:21;;;;;;;0.90;0.65;;;;;;;;;;5070602;28;20112;-75
2022/09/25 11:52:55;;;;;;;4.03;0.70;;;;;;;;;;5062368;28;20079;-74
2022/09/25 11:55:36;;;;;;;3.15;0.73;;;;;;;;;;5074912;28;20416;-74
2022/09/25 11:58:20;;;;;;;1.05;0.57;;;;;;;;;;5073120;28;20056;-75
2022/09/25 12:01:08;;;;;;;0.70;0.60;;;;;;;;;;5082003;28;20053;-74
2022/09/25 12:03:55;;;;;;;2.53;0.90;;;;;;;;;;5057792;28;20045;-74
2022/09/25 12:06:43;;;;;;;1.65;0.55;;;;;;;;;;5069616;28;20053;-74
2022/09/25 12:09:41;;;;;;;0.45;0.45;;;;;;;;;;5061731;28;20042;-74
2022/09/25 12:12:40;;;;;;;4.60;0.65;;;;;;;;;;4983873;28;20098;-72
2022/09/25 12:15:08;;;;;;;1.02;0.50;;;;;;;;;;4968546;28;20065;-74
2022/09/25 12:17:42;;;;;;;1.35;0.52;;;;;;;;;;4984367;28;20795;-74
2022/09/25 12:20:19;;;;;;;1.85;0.75;;;;;;;;;;4974326;28;20094;-75
2022/09/25 12:23:05;;;;;;;3.00;0.70;;;;;;;;;;4991520;28;20051;-74
2022/09/25 12:25:51;;;;;;;1.65;0.60;;;;;;;;;;4987577;28;20057;-75
2022/09/25 12:28:32;;;;;;;0.77;0.50;;;;;;;;;;4993689;28;20054;-74
2022/09/25 12:31:18;;;;;;;2.42;0.50;;;;;;;;;;4996337;28;20082;-74
2022/09/25 12:34:05;;;;;;;2.05;0.60;;;;;;;;;;4984214;28;20059;-74
2022/09/25 12:36:44;;;;;;;2.28;0.60;;;;;;;;;;4987657;28;20178;-73
2022/09/25 12:39:11;;;;;;;1.13;0.52;;;;;;;;;;4994648;28;20051;-74
2022/09/25 12:41:42;;;;;;;1.55;0.50;;;;;;;;;;4986491;28;20042;-74
2022/09/25 12:44:28;;;;;;;2.45;0.57;;;;;;;;;;4997355;28;20869;-73
2022/09/25 12:47:22;;;;;;;2.53;0.50;;;;;;;;;;4995283;28;20047;-74
2022/09/25 12:49:49;;;;;;;;;;;;;;;;;;5068391;28;20045;-75
2022/09/25 12:52:22;;;;;;;1.33;0.40;;;;;;;;;;5068799;28;43547;-75
2022/09/25 12:54:53;;;;;;;5.05;0.98;;;;;;;;;;5068759;28;20056;-75
2022/09/25 12:57:31;;;;;;;3.97;0.73;;;;;;;;;;5074459;28;20094;-74
2022/09/25 13:00:01;;;;;;;3.65;0.80;;;;;;;;;;5086543;28;20063;-73
2022/09/25 13:02:35;;;;;;;2.97;0.93;;;;;;;;;;5074676;28;20044;-74
2022/09/25 13:05:05;;;;;;;0.77;0.50;;;;;;;;;;5084641;28;20114;-73
2022/09/25 13:07:50;;;;;;;1.20;0.60;;;;;;;;;;5071803;28;20099;-75
2022/09/25 13:10:18;;;;;;;10.23;1.10;;;;;;;;;;5080217;28;20068;-74
2022/09/25 13:12:46;;;;;;;1.10;0.70;;;;;;;;;;5088922;28;20056;-74
2022/09/25 13:15:22;;;;;;;1.00;0.45;;;;;;;;;;5074417;28;20085;-73
2022/09/25 13:17:49;;;;;;;2.20;0.88;;;;;;;;;;5073801;28;20064;-74
2022/09/25 13:20:26;;;;;;;3.33;0.60;;;;;;;;;;5078461;28;20053;-73
2022/09/25 13:23:02;;;;;;;2.13;0.70;;;;;;;;;;5077716;28;20068;-73
2022/09/25 13:25:30;;;;;;;1.77;0.65;;;;;;;;;;5070961;28;20049;-73
2022/09/25 13:28:06;;;;;;;2.65;0.60;;;;;;;;;;5079464;28;20060;-74
2022/09/25 13:30:33;;;;;;;5.40;0.77;;;;;;;;;;5075799;28;20056;-74
2022/09/25 13:33:02;;;;;;;4.40;0.45;;;;;;;;;;5073306;28;20090;-73
2022/09/25 13:35:31;;;;;;;1.02;0.30;;;;;;;;;;5078300;28;20053;-73
2022/09/25 13:40:41;;;;;;;1.75;0.65;;;;;;;;;;5075322;28;20056;-74
2022/09/25 13:41:12;;;;;;;1.02;0.55;;;;;;;;;;5072673;28;20057;-73
2022/09/25 13:43:40;;;;;;;2.40;0.70;;;;;;;;;;5067956;28;20041;-73
2022/09/25 13:46:20;;;;;;;1.60;0.57;;;;;;;;;;5068554;28;20404;-74
2022/09/25 13:48:48;;;;;;;1.48;0.75;;;;;;;;;;5067315;28;20842;-74
2022/09/25 13:51:18;;;;;;;1.85;0.68;;;;;;;;;;5087709;28;20060;-74
2022/09/25 13:53:58;;;;;;;2.10;0.52;;;;;;;;;;5074922;28;20040;-73
2022/09/25 13:56:26;;;;;;;1.27;0.70;;;;;;;;;;5071097;28;20049;-73
2022/09/25 13:59:01;;;;;;;4.07;0.70;;;;;;;;;;5072447;28;20857;-73
2022/09/25 14:01:42;;;;;;;2.00;0.50;;;;;;;;;;5075005;28;20107;-73
2022/09/25 14:04:30;;;;;;;1.30;0.57;;;;;;;;;;5070930;28;20053;-74
2022/09/25 14:07:13;;;;;;;3.08;0.80;;;;;;;;;;5063702;28;20053;-74
2022/09/25 14:09:45;;;;;;;0.50;0.40;;;;;;;;;;5075627;28;20060;-74
2022/09/25 14:12:41;;;;;;;7.45;0.90;;;;;;;;;;5067728;28;20059;-74
2022/09/25 14:15:12;;;;;;;1.92;0.70;;;;;;;;;;5066279;28;20052;-74
2022/09/25 14:17:41;;;;;;;3.83;0.63;;;;;;;;;;5074275;28;20059;-74
2022/09/25 14:20:20;;;;;;;4.78;0.93;;;;;;;;;;5081717;28;20102;-74
2022/09/25 14:22:52;;;;;;;2.15;0.95;;;;;;;;;;5072140;28;20149;-73
2022/09/25 14:25:32;;;;;;;1.73;0.77;;;;;;;;;;5075042;28;20052;-73
2022/09/25 14:28:01;;;;;;;2.83;0.70;;;;;;;;;;5073393;28;20038;-73
2022/09/25 14:30:29;;;;;;;1.92;0.88;;;;;;;;;;5074765;28;20194;-74
2022/09/25 14:32:59;;;;;;;1.20;0.82;;;;;;;;;;5072483;28;22319;-74
2022/09/25 14:35:35;;;;;;;1.67;1.00;;;;;;;;;;5071769;28;20907;-74
2022/09/25 14:38:05;;;;;;;2.70;0.77;;;;;;;;;;5070186;28;20087;-73
2022/09/25 14:40:32;;;;;;;1.73;0.95;;;;;;;;;;5078568;28;20094;-74
2022/09/25 14:43:06;;;;;;;4.60;1.15;;;;;;;;;;5074702;28;20079;-73
2022/09/25 14:45:51;;;;;;;0.77;0.75;;;;;;;;;;5067784;28;20044;-74
2022/09/25 14:48:25;;;;;;;3.33;0.63;;;;;;;;;;5071402;28;20060;-73
2022/09/25 14:50:55;;;;;;;3.45;1.00;;;;;;;;;;5072052;28;20044;-74
2022/09/25 14:53:30;;;;;;;1.48;0.68;;;;;;;;;;5069043;28;20089;-75
2022/09/25 14:56:00;;;;;;;2.88;0.70;;;;;;;;;;5072978;28;20061;-74
2022/09/25 14:58:31;;;;;;;3.35;1.00;;;;;;;;;;5070082;28;20045;-73
2022/09/25 15:01:18;;;;;;;3.50;0.90;;;;;;;;;;5068554;28;20107;-73
2022/09/25 15:03:48;;;;;;;1.23;0.70;;;;;;;;;;5070248;28;20048;-73
2022/09/25 15:06:26;;;;;;;2.50;0.82;;;;;;;;;;5068665;28;20057;-74
2022/09/25 15:08:53;;;;;;;2.15;1.05;;;;;;;;;;5071339;28;20132;-74
2022/09/25 15:11:20;;;;;;;5.03;0.80;;;;;;;;;;5076715;28;21067;-73
2022/09/25 15:13:48;;;;;;;2.13;1.00;;;;;;;;;;5071102;28;20053;-73
2022/09/25 15:19:26;;;;;;;5.20;0.90;;;;;;;;;;5064173;28;20872;-75
2022/09/25 15:21:53;;;;;;;1.85;0.55;;;;;;;;;;5072153;28;20060;-73
2022/09/25 15:24:26;;;;;;;1.60;0.65;;;;;;;;;;5076271;28;20049;-74
2022/09/25 15:26:55;;;;;;;;;;;;;;;;;;5076955;28;20104;-73
2022/09/25 15:29:24;;;;;;;4.72;0.65;;;;;;;;;;5069330;28;44862;-73
2022/09/25 15:31:51;;;;;;;2.38;0.80;;;;;;;;;;5066048;28;20904;-75
2022/09/25 15:34:21;;;;;;;4.18;0.80;;;;;;;;;;5072798;28;20107;-74
2022/09/25 15:36:50;;;;;;;1.65;0.70;;;;;;;;;;5072921;28;20088;-74
2022/09/25 15:39:26;;;;;;;1.77;0.60;;;;;;;;;;5069189;28;20243;-73
2022/09/25 15:41:54;;;;;;;1.55;0.65;;;;;;;;;;5070625;28;20064;-74